createdAt,value
2019-03-08T05:00:56.730Z,996.83
2019-03-08T05:01:56.601Z,996.86
2019-03-08T05:03:49.268Z,996.83
2019-03-08T05:04:49.139Z,996.86
2019-03-08T05:06:41.806Z,996.87
2019-03-08T05:07:41.689Z,996.90
2019-03-08T05:09:34.391Z,997.01
2019-03-08T05:10:34.254Z,997.04
2019-03-08T05:12:26.927Z,997.02
2019-03-08T05:13:26.814Z,997.15
2019-03-08T05:15:19.498Z,997.15
2019-03-08T05:16:19.364Z,997.15
2019-03-08T05:18:12.031Z,997.11
2019-03-08T05:19:11.918Z,997.22
2019-03-08T05:21:05.101Z,997.25
2019-03-08T05:22:04.967Z,997.14
2019-03-08T05:23:57.624Z,997.16
2019-03-08T05:24:57.517Z,997.25
2019-03-08T05:26:50.206Z,997.26
2019-03-08T05:27:50.066Z,997.27
2019-03-08T05:29:43.237Z,997.40
2019-03-08T05:30:43.123Z,997.32
2019-03-08T05:32:35.813Z,997.48
2019-03-08T05:33:35.684Z,997.44
2019-03-08T05:35:28.343Z,997.36
2019-03-08T05:36:28.227Z,997.40
2019-03-08T05:38:20.919Z,997.47
2019-03-08T05:39:20.779Z,997.44
2019-03-08T05:41:13.461Z,997.51
2019-03-08T05:42:13.347Z,997.51
2019-03-08T05:44:06.038Z,997.62
2019-03-08T05:45:05.901Z,997.69
2019-03-08T05:46:58.564Z,997.71
2019-03-08T05:47:58.453Z,997.73
2019-03-08T05:49:51.129Z,997.78
2019-03-08T05:50:51.004Z,997.83
2019-03-08T05:52:43.665Z,997.79
2019-03-08T05:53:43.555Z,998.00
2019-03-08T05:55:36.240Z,998.00
2019-03-08T05:56:36.099Z,998.06
2019-03-08T05:58:28.767Z,998.15
2019-03-08T05:59:28.656Z,998.31
2019-03-08T06:01:21.334Z,998.28
2019-03-08T06:02:21.202Z,998.30
2019-03-08T06:04:13.864Z,998.43
2019-03-08T06:05:13.752Z,998.39
2019-03-08T06:07:06.432Z,998.41
2019-03-08T06:08:06.310Z,998.47
2019-03-08T06:09:58.962Z,998.48
2019-03-08T06:10:58.850Z,998.45
2019-03-08T06:12:51.529Z,998.57
2019-03-08T06:13:51.406Z,998.58
2019-03-08T06:15:44.085Z,998.68
2019-03-08T06:16:43.952Z,998.67
2019-03-08T06:18:36.617Z,998.68
2019-03-08T06:19:36.498Z,998.73
2019-03-08T06:21:29.199Z,998.82
2019-03-08T06:22:29.066Z,998.77
2019-03-08T06:24:21.735Z,998.86
2019-03-08T06:25:21.621Z,998.95
2019-03-08T06:27:14.301Z,999.06
2019-03-08T06:28:14.183Z,999.01
2019-03-08T06:30:06.847Z,999.06
2019-03-08T06:31:06.724Z,999.18
2019-03-08T06:32:59.414Z,999.22
2019-03-08T06:33:59.280Z,999.19
2019-03-08T06:35:51.936Z,999.26
2019-03-08T06:36:51.824Z,999.41
2019-03-08T06:38:44.510Z,999.50
2019-03-08T06:39:44.377Z,999.53
2019-03-08T06:41:37.042Z,999.47
2019-03-08T06:42:36.928Z,999.48
2019-03-08T06:44:29.608Z,999.55
2019-03-08T06:45:29.474Z,999.58
2019-03-08T06:47:22.141Z,999.73
2019-03-08T06:48:22.031Z,999.79
2019-03-08T06:50:14.715Z,999.74
2019-03-08T06:51:14.579Z,999.82
2019-03-08T06:53:07.238Z,999.87
2019-03-08T06:54:07.126Z,999.92
2019-03-08T06:55:59.809Z,999.94
2019-03-08T06:56:59.683Z,1000.01
2019-03-08T06:58:52.340Z,1000.04
2019-03-08T06:59:52.231Z,1000.15
2019-03-08T07:01:44.918Z,1000.20
2019-03-08T07:02:44.777Z,1000.24
2019-03-08T07:04:37.458Z,1000.26
2019-03-08T07:05:37.343Z,1000.22
2019-03-08T07:07:30.021Z,1000.37
2019-03-08T07:08:29.889Z,1000.39
2019-03-08T07:10:22.561Z,1000.40
2019-03-08T07:11:22.443Z,1000.45
2019-03-08T07:13:15.135Z,1000.54
2019-03-08T07:14:15.009Z,1000.52
2019-03-08T07:16:13.103Z,1000.65
2019-03-08T07:17:07.558Z,1000.66
2019-03-08T07:19:00.247Z,1000.71
2019-03-08T07:20:00.314Z,1000.81
2019-03-08T07:21:52.777Z,1000.79
2019-03-08T07:22:52.667Z,1000.77
2019-03-08T07:24:45.351Z,1000.90
2019-03-08T07:25:51.506Z,1000.96
2019-03-08T07:27:37.880Z,1001.05
2019-03-08T07:28:37.766Z,1001.05
2019-03-08T07:30:30.491Z,1001.15
2019-03-08T07:31:30.326Z,1001.16
2019-03-08T07:33:22.989Z,1001.19
2019-03-08T07:34:22.878Z,1001.34
2019-03-08T07:36:15.567Z,1001.28
2019-03-08T07:37:15.432Z,1001.38
2019-03-08T07:39:08.090Z,1001.47
2019-03-08T07:40:07.982Z,1001.51
2019-03-08T07:42:00.669Z,1001.62
2019-03-08T07:43:00.540Z,1001.68
2019-03-08T07:44:53.211Z,1001.62
2019-03-08T07:45:53.113Z,1001.78
2019-03-08T07:47:45.812Z,1001.76
2019-03-08T07:48:45.685Z,1001.80
2019-03-08T07:50:38.351Z,1001.94
2019-03-08T07:51:38.242Z,1001.93
2019-03-08T07:53:30.919Z,1001.94
2019-03-08T07:54:30.793Z,1001.84
2019-03-08T07:56:23.462Z,1002.04
2019-03-08T07:57:23.359Z,1001.97
2019-03-08T07:59:16.037Z,1002.01
2019-03-08T08:00:15.916Z,1001.98
2019-03-08T08:02:08.586Z,1002.00
2019-03-08T08:03:08.478Z,1002.21
2019-03-08T08:05:01.163Z,1002.16
2019-03-08T08:06:01.037Z,1002.29
2019-03-08T08:07:53.699Z,1002.22
2019-03-08T08:08:53.590Z,1002.24
2019-03-08T08:10:46.281Z,1002.40
2019-03-08T08:11:46.147Z,1002.43
2019-03-08T08:13:38.812Z,1002.55
2019-03-08T08:14:39.818Z,1002.59
2019-03-08T08:16:31.386Z,1002.49
2019-03-08T08:17:31.255Z,1002.59
2019-03-08T08:19:23.929Z,1002.60
2019-03-08T08:20:23.824Z,1002.54
2019-03-08T08:22:16.504Z,1002.56
2019-03-08T08:23:16.380Z,1002.61
2019-03-08T08:25:09.051Z,1002.74
2019-03-08T08:26:08.940Z,1002.77
2019-03-08T08:28:01.623Z,1002.87
2019-03-08T08:29:01.500Z,1002.99
2019-03-08T08:30:54.163Z,1002.81
2019-03-08T08:31:54.057Z,1002.85
2019-03-08T08:33:46.743Z,1002.81
2019-03-08T08:34:46.621Z,1002.92
2019-03-08T08:36:39.308Z,1003.00
2019-03-08T08:37:39.174Z,1003.09
2019-03-08T08:39:31.851Z,1003.15
2019-03-08T08:40:31.737Z,1003.15
2019-03-08T08:42:24.437Z,1003.17
2019-03-08T08:43:24.305Z,1003.35
2019-03-08T08:45:16.972Z,1003.25
2019-03-08T08:46:16.865Z,1003.26
2019-03-08T08:48:09.548Z,1003.28
2019-03-08T08:49:09.416Z,1003.33
2019-03-08T08:51:02.084Z,1003.41
2019-03-08T08:52:01.970Z,1003.49
2019-03-08T08:53:54.659Z,1003.54
2019-03-08T08:54:54.525Z,1003.57
2019-03-08T08:56:47.210Z,1003.55
2019-03-08T08:57:47.092Z,1003.56
2019-03-08T08:59:39.780Z,1003.74
2019-03-08T09:00:39.649Z,1003.74
2019-03-08T09:02:32.308Z,1003.75
2019-03-08T09:03:32.199Z,1003.77
2019-03-08T09:05:24.878Z,1003.69
2019-03-08T09:06:24.751Z,1003.79
2019-03-08T09:08:17.416Z,1003.86
2019-03-08T09:09:17.312Z,1003.89
2019-03-08T09:11:10.004Z,1003.91
2019-03-08T09:12:09.870Z,1003.91
2019-03-08T09:14:02.535Z,1004.02
2019-03-08T09:15:02.425Z,1004.07
2019-03-08T09:16:55.116Z,1004.04
2019-03-08T09:17:54.972Z,1004.09
2019-03-08T09:19:47.653Z,1004.16
2019-03-08T09:20:47.525Z,1004.17
2019-03-08T09:22:40.212Z,1004.15
2019-03-08T09:23:40.125Z,1004.19
2019-03-08T09:25:32.747Z,1004.22
2019-03-08T09:26:33.139Z,1004.24
2019-03-08T09:28:25.338Z,1004.22
2019-03-08T09:29:25.200Z,1004.25
2019-03-08T09:31:17.869Z,1004.26
2019-03-08T09:32:17.761Z,1004.16
2019-03-08T09:34:10.440Z,1004.21
2019-03-08T09:35:10.313Z,1004.27
2019-03-08T09:37:02.989Z,1004.23
2019-03-08T09:38:02.882Z,1004.25
2019-03-08T09:39:55.565Z,1004.30
2019-03-08T09:40:56.834Z,1004.35
2019-03-08T09:42:48.100Z,1004.35
2019-03-08T09:43:47.989Z,1004.47
2019-03-08T09:45:40.685Z,1004.49
2019-03-08T09:46:40.552Z,1004.49
2019-03-08T09:48:33.223Z,1004.54
2019-03-08T09:49:33.111Z,1004.56
2019-03-08T09:51:25.791Z,1004.64
2019-03-08T09:52:25.662Z,1004.51
2019-03-08T09:54:18.428Z,1004.53
2019-03-08T09:55:18.217Z,1004.61
2019-03-08T09:57:10.899Z,1004.62
2019-03-08T09:58:10.769Z,1004.59
2019-03-08T10:00:03.434Z,1004.74
2019-03-08T10:01:03.328Z,1004.74
2019-03-08T10:02:56.007Z,1004.74
2019-03-08T10:03:55.878Z,1004.89
2019-03-08T10:05:48.540Z,1004.84
2019-03-08T10:06:48.437Z,1004.82
2019-03-08T10:08:41.123Z,1004.75
2019-03-08T10:09:40.988Z,1004.80
2019-03-08T10:11:33.663Z,1004.76
2019-03-08T10:12:33.556Z,1004.86
2019-03-08T10:14:26.238Z,1004.83
2019-03-08T10:15:26.106Z,1004.78
2019-03-08T10:17:18.784Z,1004.76
2019-03-08T10:18:18.678Z,1004.77
2019-03-08T10:20:11.371Z,1004.83
2019-03-08T10:21:11.238Z,1004.83
2019-03-08T10:23:03.914Z,1004.76
2019-03-08T10:24:03.796Z,1004.90
2019-03-08T10:25:56.481Z,1004.93
2019-03-08T10:26:56.360Z,1004.97
2019-03-08T10:28:49.018Z,1004.94
2019-03-08T10:29:48.932Z,1005.09
2019-03-08T10:31:41.623Z,1005.03
2019-03-08T10:32:41.475Z,1005.11
2019-03-08T10:34:34.146Z,1005.19
2019-03-08T10:35:34.038Z,1005.26
2019-03-08T10:37:26.738Z,1005.24
2019-03-08T10:38:26.597Z,1005.18
2019-03-08T10:40:19.273Z,1005.18
2019-03-08T10:41:19.166Z,1005.27
2019-03-08T10:43:11.860Z,1005.28
2019-03-08T10:44:12.237Z,1005.28
2019-03-08T10:46:04.399Z,1005.35
2019-03-08T10:47:04.295Z,1005.27
2019-03-08T10:48:56.984Z,1005.34
2019-03-08T10:49:56.855Z,1005.50
2019-03-08T10:51:49.538Z,1005.35
2019-03-08T10:52:49.417Z,1005.37
2019-03-08T10:54:42.121Z,1005.52
2019-03-08T10:55:41.991Z,1005.55
2019-03-08T10:57:34.658Z,1005.51
2019-03-08T10:58:34.550Z,1005.57
2019-03-08T11:00:27.245Z,1005.58
2019-03-08T11:01:27.116Z,1005.60
2019-03-08T11:03:19.784Z,1005.81
2019-03-08T11:04:19.672Z,1005.85
2019-03-08T11:06:12.864Z,1005.91
2019-03-08T11:07:12.728Z,1005.82
2019-03-08T11:09:05.398Z,1005.82
2019-03-08T11:10:05.287Z,1005.80
2019-03-08T11:11:57.985Z,1005.98
2019-03-08T11:12:57.848Z,1006.04
2019-03-08T11:14:50.526Z,1006.06
2019-03-08T11:15:50.407Z,1006.13
2019-03-08T11:17:50.567Z,1006.14
2019-03-08T11:18:42.969Z,1006.18
2019-03-08T11:20:35.647Z,1006.25
2019-03-08T11:21:35.536Z,1006.14
2019-03-08T11:23:28.219Z,1006.22
2019-03-08T11:24:28.091Z,1006.25
2019-03-08T11:26:20.758Z,1006.10
2019-03-08T11:27:20.658Z,1006.14
2019-03-08T11:29:13.343Z,1006.09
2019-03-08T11:30:13.220Z,1006.10
2019-03-08T11:32:05.901Z,1006.14
2019-03-08T11:33:05.785Z,1006.23
2019-03-08T11:34:58.490Z,1006.21
2019-03-08T11:35:58.361Z,1006.20
2019-03-08T11:37:51.704Z,1006.23
2019-03-08T11:38:50.925Z,1006.16
2019-03-08T11:40:43.629Z,1006.21
2019-03-08T11:41:43.510Z,1006.16
2019-03-08T11:43:36.173Z,1006.19
2019-03-08T11:44:36.071Z,1006.37
2019-03-08T11:46:28.750Z,1006.32
2019-03-08T11:47:28.626Z,1006.34
2019-03-08T11:49:21.296Z,1006.40
2019-03-08T11:50:21.194Z,1006.39
2019-03-08T11:52:13.894Z,1006.45
2019-03-08T11:53:13.756Z,1006.58
2019-03-08T11:55:06.414Z,1006.65
2019-03-08T11:56:06.302Z,1006.65
2019-03-08T11:57:58.994Z,1006.93
2019-03-08T11:58:58.863Z,1006.83
2019-03-08T12:00:53.116Z,1006.91
2019-03-08T12:01:51.436Z,1006.90
2019-03-08T12:03:44.131Z,1006.90
2019-03-08T12:04:44.002Z,1006.86
2019-03-08T12:06:36.672Z,1006.78
2019-03-08T12:07:36.555Z,1006.87
2019-03-08T12:09:29.243Z,1006.92
2019-03-08T12:10:29.109Z,1006.96
2019-03-08T12:12:21.774Z,1007.14
2019-03-08T12:13:21.662Z,1007.14
2019-03-08T12:15:14.536Z,1007.14
2019-03-08T12:16:14.309Z,1007.09
2019-03-08T12:18:06.982Z,1007.10
2019-03-08T12:19:06.865Z,1007.06
2019-03-08T12:20:59.564Z,1007.16
2019-03-08T12:21:59.424Z,1007.11
2019-03-08T12:23:52.092Z,1007.08
2019-03-08T12:24:51.981Z,1007.14
2019-03-08T12:26:44.698Z,1007.18
2019-03-08T12:27:44.558Z,1007.20
2019-03-08T12:29:37.717Z,1007.18
2019-03-08T12:30:37.606Z,1007.17
2019-03-08T12:32:30.297Z,1007.09
2019-03-08T12:33:30.163Z,1007.13
2019-03-08T12:35:22.830Z,1007.10
2019-03-08T12:36:22.720Z,1007.06
2019-03-08T12:38:15.419Z,1007.08
2019-03-08T12:39:15.271Z,1007.02
2019-03-08T12:41:07.949Z,1007.00
2019-03-08T12:42:07.844Z,1007.01
2019-03-08T12:44:00.527Z,1007.07
2019-03-08T12:45:00.397Z,1007.01
2019-03-08T12:46:53.072Z,1006.98
2019-03-08T12:47:52.959Z,1007.08
2019-03-08T12:49:45.664Z,1007.07
2019-03-08T12:50:45.527Z,1007.13
2019-03-08T12:52:38.242Z,1007.21
2019-03-08T12:53:38.082Z,1007.16
2019-03-08T12:55:30.812Z,1007.09
2019-03-08T12:56:30.672Z,1007.06
2019-03-08T12:58:23.331Z,1006.96
2019-03-08T12:59:23.227Z,1007.05
2019-03-08T13:01:15.915Z,1007.01
2019-03-08T13:02:15.785Z,1007.01
2019-03-08T13:04:08.461Z,1007.01
2019-03-08T13:05:08.343Z,1006.98
2019-03-08T13:07:01.030Z,1006.95
2019-03-08T13:08:00.898Z,1007.02
2019-03-08T13:09:53.575Z,1007.01
2019-03-08T13:10:53.460Z,1007.02
2019-03-08T13:12:46.420Z,1007.03
2019-03-08T13:13:46.286Z,1007.10
2019-03-08T13:15:38.963Z,1007.09
2019-03-08T13:16:38.856Z,1007.09
2019-03-08T13:18:31.536Z,1007.17
2019-03-08T13:19:31.416Z,1007.19
2019-03-08T13:21:24.086Z,1007.26
2019-03-08T13:22:23.972Z,1007.17
2019-03-08T13:24:16.649Z,1007.20
2019-03-08T13:25:16.524Z,1007.17
2019-03-08T13:27:09.188Z,1007.17
2019-03-08T13:28:09.100Z,1007.21
2019-03-08T13:30:01.798Z,1007.10
2019-03-08T13:31:01.640Z,1007.19
2019-03-08T13:32:54.346Z,1007.19
2019-03-08T13:33:54.210Z,1007.24
2019-03-08T13:35:46.886Z,1007.26
2019-03-08T13:36:46.769Z,1007.32
2019-03-08T13:38:39.465Z,1007.22
2019-03-08T13:39:39.346Z,1007.25
2019-03-08T13:41:31.997Z,1007.20
2019-03-08T13:42:31.890Z,1007.21
2019-03-08T13:44:24.583Z,1007.30
2019-03-08T13:45:24.443Z,1007.55
2019-03-08T13:47:17.111Z,1007.65
2019-03-08T13:48:17.011Z,1007.60
2019-03-08T13:50:09.692Z,1007.59
2019-03-08T13:51:09.573Z,1007.69
2019-03-08T13:53:02.258Z,1007.59
2019-03-08T13:54:02.136Z,1007.51
2019-03-08T13:55:54.811Z,1007.68
2019-03-08T13:56:54.689Z,1007.72
2019-03-08T13:58:47.352Z,1007.63
2019-03-08T13:59:47.250Z,1007.69
2019-03-08T14:01:39.937Z,1007.68
2019-03-08T14:02:39.803Z,1007.77
2019-03-08T14:04:32.466Z,1007.71
2019-03-08T14:05:32.348Z,1007.65
2019-03-08T14:07:25.046Z,1007.60
2019-03-08T14:08:24.903Z,1007.64
2019-03-08T14:10:17.573Z,1007.61
2019-03-08T14:11:17.581Z,1007.59
2019-03-08T14:13:10.159Z,1007.56
2019-03-08T14:14:10.021Z,1007.55
2019-03-08T14:16:02.703Z,1007.47
2019-03-08T14:17:02.587Z,1007.55
2019-03-08T14:18:55.279Z,1007.42
2019-03-08T14:19:55.144Z,1007.43
2019-03-08T14:21:47.817Z,1007.43
2019-03-08T14:22:47.706Z,1007.48
2019-03-08T14:24:40.400Z,1007.44
2019-03-08T14:25:40.269Z,1007.43
2019-03-08T14:27:32.939Z,1007.47
2019-03-08T14:28:32.845Z,1007.42
2019-03-08T14:30:26.880Z,1007.41
2019-03-08T14:31:25.394Z,1007.42
2019-03-08T14:33:18.067Z,1007.39
2019-03-08T14:34:17.957Z,1007.37
2019-03-08T14:36:10.637Z,1007.37
2019-03-08T14:37:10.514Z,1007.36
2019-03-08T14:39:04.143Z,1007.42
2019-03-08T14:40:03.075Z,1007.40
2019-03-08T14:41:55.796Z,1007.50
2019-03-08T14:42:55.623Z,1007.48
2019-03-08T14:44:48.294Z,1007.41
2019-03-08T14:45:48.183Z,1007.43
2019-03-08T14:47:40.871Z,1007.45
2019-03-08T14:48:42.483Z,1007.46
2019-03-08T14:50:35.580Z,1007.50
2019-03-08T14:51:33.309Z,1007.45
2019-03-08T14:53:28.489Z,1007.52
2019-03-08T14:54:26.059Z,1007.54
2019-03-08T14:56:18.760Z,1007.48
2019-03-08T14:57:26.862Z,1007.48
2019-03-08T14:59:15.240Z,1007.51
2019-03-08T15:00:11.180Z,1007.53
2019-03-08T15:02:03.843Z,1007.49
2019-03-08T15:03:03.737Z,1007.54
2019-03-08T15:04:56.422Z,1007.59
2019-03-08T15:05:56.304Z,1007.61
2019-03-08T15:07:49.514Z,1007.61
2019-03-08T15:08:51.180Z,1007.63
2019-03-08T15:10:43.564Z,1007.60
2019-03-08T15:11:41.908Z,1007.60
2019-03-08T15:13:34.669Z,1007.57
2019-03-08T15:14:35.295Z,1007.56
2019-03-08T15:16:27.152Z,1007.58
2019-03-08T15:17:29.022Z,1007.64
2019-03-08T15:19:19.729Z,1007.58
2019-03-08T15:20:19.600Z,1007.57
2019-03-08T15:22:12.276Z,1007.52
2019-03-08T15:23:13.367Z,1007.50
2019-03-08T15:25:08.349Z,1007.46
2019-03-08T15:26:04.715Z,1007.53
2019-03-08T15:27:57.379Z,1007.45
2019-03-08T15:28:57.266Z,1007.55
2019-03-08T15:30:49.961Z,1007.57
2019-03-08T15:31:49.833Z,1007.61
2019-03-08T15:33:42.497Z,1007.56
2019-03-08T15:34:42.386Z,1007.48
2019-03-08T15:36:35.074Z,1007.37
2019-03-08T15:37:43.646Z,1007.34
2019-03-08T15:39:27.613Z,1007.39
2019-03-08T15:40:27.496Z,1007.40
2019-03-08T15:42:20.193Z,1007.39
2019-03-08T15:43:20.056Z,1007.41
2019-03-08T15:45:12.727Z,1007.43
2019-03-08T15:46:12.604Z,1007.44
2019-03-08T15:48:05.306Z,1007.45
2019-03-08T15:49:05.193Z,1007.46
2019-03-08T15:50:59.501Z,1007.45
2019-03-08T15:51:59.897Z,1007.47
2019-03-08T15:53:50.422Z,1007.44
2019-03-08T15:54:50.284Z,1007.42
2019-03-08T15:56:42.979Z,1007.51
2019-03-08T15:57:42.978Z,1007.45
2019-03-08T15:59:35.563Z,1007.50
2019-03-08T16:00:35.432Z,1007.44
2019-03-08T16:02:28.097Z,1007.46
2019-03-08T16:03:30.061Z,1007.42
2019-03-08T16:05:24.000Z,1007.38
2019-03-08T16:06:20.544Z,1007.41
2019-03-08T16:08:13.210Z,1007.37
2019-03-08T16:09:13.175Z,1007.39
2019-03-08T16:11:05.788Z,1007.34
2019-03-08T16:12:05.651Z,1007.37
2019-03-08T16:13:58.335Z,1007.40
2019-03-08T16:14:58.223Z,1007.41
2019-03-08T16:16:50.911Z,1007.37
2019-03-08T16:17:50.769Z,1007.38
2019-03-08T16:19:43.448Z,1007.44
2019-03-08T16:20:43.327Z,1007.42
2019-03-08T16:22:36.015Z,1007.38
2019-03-08T16:23:35.902Z,1007.39
2019-03-08T16:25:28.589Z,1007.36
2019-03-08T16:26:28.458Z,1007.37
2019-03-08T16:28:21.141Z,1007.40
2019-03-08T16:29:21.012Z,1007.39
2019-03-08T16:31:13.677Z,1007.35
2019-03-08T16:32:13.566Z,1007.33
2019-03-08T16:34:06.267Z,1007.28
2019-03-08T16:35:06.134Z,1007.27
2019-03-08T16:36:58.812Z,1007.24
2019-03-08T16:37:58.685Z,1007.25
2019-03-08T16:39:51.398Z,1007.20
2019-03-08T16:40:51.259Z,1007.22
2019-03-08T16:42:43.922Z,1007.19
2019-03-08T16:43:45.722Z,1007.17
2019-03-08T16:45:36.500Z,1007.18
2019-03-08T16:46:36.367Z,1007.23
2019-03-08T16:48:29.033Z,1007.19
2019-03-08T16:49:28.920Z,1007.16
2019-03-08T16:51:21.606Z,1007.16
2019-03-08T16:52:23.195Z,1007.17
2019-03-08T16:54:14.140Z,1007.11
2019-03-08T16:55:14.029Z,1007.10
2019-03-08T16:57:06.754Z,1007.13
2019-03-08T16:58:06.606Z,1007.10
2019-03-08T17:00:00.352Z,1007.07
2019-03-08T17:01:00.164Z,1007.04
2019-03-08T17:02:52.859Z,1007.07
2019-03-08T17:03:52.722Z,1007.00
2019-03-08T17:05:45.395Z,1007.01
2019-03-08T17:06:45.279Z,1007.00
2019-03-08T17:08:37.984Z,1007.06
2019-03-08T17:09:37.826Z,1007.06
2019-03-08T17:11:30.502Z,1007.08
2019-03-08T17:12:30.385Z,1007.12
2019-03-08T17:14:23.082Z,1007.18
2019-03-08T17:15:22.940Z,1007.16
2019-03-08T17:17:15.611Z,1007.15
2019-03-08T17:18:15.500Z,1007.14
2019-03-08T17:20:08.184Z,1007.23
2019-03-08T17:21:08.054Z,1007.19
2019-03-08T17:23:00.713Z,1007.20
2019-03-08T17:24:00.601Z,1007.20
2019-03-08T17:25:53.308Z,1007.14
2019-03-08T17:26:53.170Z,1007.18
2019-03-08T17:28:45.849Z,1007.15
2019-03-08T17:29:45.752Z,1007.18
2019-03-08T17:31:38.427Z,1007.22
2019-03-08T17:32:38.297Z,1007.20
2019-03-08T17:34:30.968Z,1007.17
2019-03-08T17:35:30.862Z,1007.19
2019-03-08T17:37:23.541Z,1007.21
2019-03-08T17:38:23.414Z,1007.16
2019-03-08T17:40:16.093Z,1007.20
2019-03-08T17:41:15.976Z,1007.20
2019-03-08T17:43:08.692Z,1007.18
2019-03-08T17:44:08.548Z,1007.18
2019-03-08T17:46:01.204Z,1007.25
2019-03-08T17:47:01.099Z,1007.22
2019-03-08T17:48:53.812Z,1007.23
2019-03-08T17:49:53.678Z,1007.29
2019-03-08T17:51:46.372Z,1007.27
2019-03-08T17:52:46.319Z,1007.20
2019-03-08T17:54:38.924Z,1007.22
2019-03-08T17:55:38.799Z,1007.23
2019-03-08T17:57:31.469Z,1007.25
2019-03-08T17:58:31.353Z,1007.19
2019-03-08T18:00:24.053Z,1007.16
2019-03-08T18:01:23.920Z,1007.22
2019-03-08T18:03:16.589Z,1007.16
2019-03-08T18:04:16.473Z,1007.15
2019-03-08T18:06:09.159Z,1007.18
2019-03-08T18:07:09.022Z,1007.14
2019-03-08T18:09:01.691Z,1007.15
2019-03-08T18:10:01.579Z,1007.17
2019-03-08T18:11:54.271Z,1007.19
2019-03-08T18:12:54.138Z,1007.20
2019-03-08T18:14:46.810Z,1007.20
2019-03-08T18:15:46.708Z,1007.16
2019-03-08T18:17:39.407Z,1007.10
2019-03-08T18:18:39.255Z,1007.04
2019-03-08T18:20:31.921Z,1007.11
2019-03-08T18:21:31.814Z,1007.09
2019-03-08T18:23:24.501Z,1007.09
2019-03-08T18:24:24.371Z,1007.09
2019-03-08T18:26:17.035Z,1007.08
2019-03-08T18:27:16.930Z,1007.09
2019-03-08T18:29:09.608Z,1007.06
2019-03-08T18:30:09.479Z,1007.10
2019-03-08T18:32:02.145Z,1007.05
2019-03-08T18:33:02.031Z,1006.98
2019-03-08T18:34:54.718Z,1007.04
2019-03-08T18:35:54.587Z,1006.98
2019-03-08T18:37:47.328Z,1006.93
2019-03-08T18:38:47.186Z,1006.93
2019-03-08T18:40:39.851Z,1006.93
2019-03-08T18:41:39.736Z,1006.97
2019-03-08T18:43:32.427Z,1006.98
2019-03-08T18:44:32.291Z,1006.93
2019-03-08T18:46:24.960Z,1006.89
2019-03-08T18:47:24.843Z,1006.93
2019-03-08T18:49:17.535Z,1006.92
2019-03-08T18:50:17.403Z,1006.91
2019-03-08T18:52:10.070Z,1006.87
2019-03-08T18:53:09.954Z,1006.89
2019-03-08T18:55:02.634Z,1006.92
2019-03-08T18:56:02.502Z,1006.98
2019-03-08T18:57:55.179Z,1006.96
2019-03-08T18:58:55.068Z,1007.00
2019-03-08T19:00:47.755Z,1006.95
2019-03-08T19:01:47.640Z,1006.93
2019-03-08T19:03:40.291Z,1006.91
2019-03-08T19:04:40.265Z,1006.92
2019-03-08T19:06:32.860Z,1006.84
2019-03-08T19:07:32.729Z,1006.92
2019-03-08T19:09:25.388Z,1006.88
2019-03-08T19:10:25.279Z,1006.89
2019-03-08T19:12:17.967Z,1006.79
2019-03-08T19:13:17.834Z,1006.86
2019-03-08T19:15:10.497Z,1006.75
2019-03-08T19:16:10.383Z,1006.77
2019-03-08T19:18:03.073Z,1006.70
2019-03-08T19:19:02.940Z,1006.66
2019-03-08T19:20:55.646Z,1006.61
2019-03-08T19:21:55.539Z,1006.57
2019-03-08T19:23:48.240Z,1006.58
2019-03-08T19:24:48.091Z,1006.56
2019-03-08T19:26:40.762Z,1006.59
2019-03-08T19:27:40.659Z,1006.57
2019-03-08T19:29:33.330Z,1006.58
2019-03-08T19:30:33.207Z,1006.60
2019-03-08T19:32:25.863Z,1006.55
2019-03-08T19:33:25.765Z,1006.58
2019-03-08T19:35:18.438Z,1006.57
2019-03-08T19:36:18.299Z,1006.60
2019-03-08T19:38:10.975Z,1006.76
2019-03-08T19:39:10.854Z,1006.83
2019-03-08T19:41:03.542Z,1007.02
2019-03-08T19:42:03.410Z,1007.15
2019-03-08T19:43:56.073Z,1007.36
2019-03-08T19:44:55.957Z,1007.54
2019-03-08T19:46:48.642Z,1007.60
2019-03-08T19:47:48.510Z,1007.61
2019-03-08T19:49:41.187Z,1007.49
2019-03-08T19:50:41.077Z,1007.35
2019-03-08T19:52:33.780Z,1007.15
2019-03-08T19:53:33.655Z,1007.13
2019-03-08T19:55:26.312Z,1006.90
2019-03-08T19:56:26.208Z,1006.88
2019-03-08T19:58:18.891Z,1006.92
2019-03-08T19:59:18.773Z,1007.01
2019-03-08T20:01:11.432Z,1006.98
2019-03-08T20:02:11.319Z,1006.97
2019-03-08T20:04:04.020Z,1006.97
2019-03-08T20:05:03.877Z,1006.89
2019-03-08T20:06:56.541Z,1006.81
2019-03-08T20:07:56.424Z,1006.83
2019-03-08T20:09:49.107Z,1006.81
2019-03-08T20:10:48.985Z,1006.70
2019-03-08T20:12:41.645Z,1006.75
2019-03-08T20:13:41.542Z,1006.69
2019-03-08T20:15:34.242Z,1006.76
2019-03-08T20:16:34.109Z,1006.78
2019-03-08T20:18:26.769Z,1006.70
2019-03-08T20:19:26.655Z,1006.69
2019-03-08T20:21:19.331Z,1006.68
2019-03-08T20:22:19.205Z,1006.62
2019-03-08T20:24:11.868Z,1006.65
2019-03-08T20:25:11.756Z,1006.62
2019-03-08T20:27:04.428Z,1006.58
2019-03-08T20:28:04.310Z,1006.55
2019-03-08T20:29:56.981Z,1006.57
2019-03-08T20:30:56.852Z,1006.59
2019-03-08T20:32:49.540Z,1006.57
2019-03-08T20:33:49.399Z,1006.56
2019-03-08T20:35:42.083Z,1006.54
2019-03-08T20:36:41.964Z,1006.52
2019-03-08T20:38:34.645Z,1006.51
2019-03-08T20:39:34.512Z,1006.52
2019-03-08T20:41:27.180Z,1006.49
2019-03-08T20:42:27.070Z,1006.44
2019-03-08T20:44:19.755Z,1006.35
2019-03-08T20:45:19.621Z,1006.36
2019-03-08T20:47:12.284Z,1006.33
2019-03-08T20:48:12.169Z,1006.27
2019-03-08T20:50:04.864Z,1006.27
2019-03-08T20:51:04.724Z,1006.21
2019-03-08T20:52:57.404Z,1006.23
2019-03-08T20:53:57.292Z,1006.19
2019-03-08T20:55:49.968Z,1006.15
2019-03-08T20:56:49.833Z,1006.16
2019-03-08T20:58:42.519Z,1006.13
2019-03-08T20:59:42.380Z,1006.14
2019-03-08T21:01:35.063Z,1006.13
2019-03-08T21:02:34.934Z,1006.11
2019-03-08T21:04:27.613Z,1006.04
2019-03-08T21:05:27.487Z,1006.07
2019-03-08T21:07:20.169Z,1006.07
2019-03-08T21:08:20.027Z,1006.07
2019-03-08T21:10:12.700Z,1006.01
2019-03-08T21:11:12.585Z,1006.03
2019-03-08T21:13:05.277Z,1005.98
2019-03-08T21:14:05.146Z,1005.97
2019-03-08T21:15:57.810Z,1005.96
2019-03-08T21:16:58.750Z,1005.97
2019-03-08T21:18:50.386Z,1005.93
2019-03-08T21:19:50.249Z,1005.91
2019-03-08T21:21:42.920Z,1005.92
2019-03-08T21:22:42.814Z,1005.87
2019-03-08T21:24:35.491Z,1005.91
2019-03-08T21:25:35.385Z,1005.87
2019-03-08T21:27:28.027Z,1005.88
2019-03-08T21:28:27.902Z,1005.86
2019-03-08T21:30:20.591Z,1005.80
2019-03-08T21:31:20.461Z,1005.80
2019-03-08T21:33:13.138Z,1005.83
2019-03-08T21:34:13.015Z,1005.82
2019-03-08T21:36:05.696Z,1005.78
2019-03-08T21:37:05.566Z,1005.85
2019-03-08T21:38:58.248Z,1005.78
2019-03-08T21:39:58.134Z,1005.71
2019-03-08T21:41:50.822Z,1005.67
2019-03-08T21:42:50.691Z,1005.72
2019-03-08T21:44:43.358Z,1005.68
2019-03-08T21:45:43.252Z,1005.70
2019-03-08T21:47:35.924Z,1005.61
2019-03-08T21:48:35.799Z,1005.62
2019-03-08T21:50:28.459Z,1005.60
2019-03-08T21:51:28.345Z,1005.57
2019-03-08T21:53:21.031Z,1005.52
2019-03-08T21:54:20.900Z,1005.53
2019-03-08T21:56:13.563Z,1005.47
2019-03-08T21:57:13.452Z,1005.50
2019-03-08T21:59:06.169Z,1005.43
2019-03-08T22:00:06.006Z,1005.44
2019-03-08T22:01:58.670Z,1005.33
2019-03-08T22:02:58.555Z,1005.27
2019-03-08T22:04:51.252Z,1005.22
2019-03-08T22:05:51.113Z,1005.13
2019-03-08T22:07:43.784Z,1005.04
2019-03-08T22:08:43.678Z,1005.01
2019-03-08T22:10:36.369Z,1004.89
2019-03-08T22:11:36.219Z,1004.81
2019-03-08T22:13:28.884Z,1004.77
2019-03-08T22:14:28.776Z,1004.74
2019-03-08T22:16:21.455Z,1004.74
2019-03-08T22:17:21.326Z,1004.73
2019-03-08T22:19:13.988Z,1004.70
2019-03-08T22:20:13.869Z,1004.70
2019-03-08T22:22:06.557Z,1004.69
2019-03-08T22:23:06.428Z,1004.61
2019-03-08T22:24:59.097Z,1004.56
2019-03-08T22:25:58.983Z,1004.56
2019-03-08T22:27:51.664Z,1004.51